sensor_id;sensor_type;location;lat;lon;timestamp;temperature;humidity
21759;DHT22;11041;50.854;20.580;2022-08-01T00:01:14;15.50;99.90
21759;DHT22;11041;50.854;20.580;2022-08-01T00:03:41;15.50;99.90
21759;DHT22;11041;50.854;20.580;2022-08-01T00:06:08;15.40;99.90
21759;DHT22;11041;50.854;20.580;2022-08-01T00:08:35;15.50;99.90
21759;DHT22;11041;50.854;20.580;2022-08-01T00:11:01;15.40;99.90
21759;DHT22;11041;50.854;20.580;2022-08-01T00:13:28;15.50;99.90
21759;DHT22;11041;50.854;20.580;2022-08-01T00:15:54;15.50;99.90
21759;DHT22;11041;50.854;20.580;2022-08-01T00:18:21;15.50;99.90
21759;DHT22;11041;50.854;20.580;2022-08-01T00:20:47;15.40;99.90
21759;DHT22;11041;50.854;20.580;2022-08-01T00:23:14;15.40;99.90
21759;DHT22;11041;50.854;20.580;2022-08-01T00:25:40;15.40;99.90
21759;DHT22;11041;50.854;20.580;2022-08-01T00:28:07;15.40;99.90
21759;DHT22;11041;50.854;20.580;2022-08-01T00:30:35;15.50;99.90
21759;DHT22;11041;50.854;20.580;2022-08-01T00:33:02;15.50;99.90
21759;DHT22;11041;50.854;20.580;2022-08-01T00:35:29;15.50;99.90
21759;DHT22;11041;50.854;20.580;2022-08-01T00:37:55;15.50;99.90
21759;DHT22;11041;50.854;20.580;2022-08-01T00:40:22;15.40;99.90
21759;DHT22;11041;50.854;20.580;2022-08-01T00:42:49;15.40;99.90
21759;DHT22;11041;50.854;20.580;2022-08-01T00:45:15;15.50;99.90
21759;DHT22;11041;50.854;20.580;2022-08-01T00:47:42;15.40;99.90
21759;DHT22;11041;50.854;20.580;2022-08-01T00:50:09;15.40;99.90
21759;DHT22;11041;50.854;20.580;2022-08-01T00:52:37;15.40;99.90
21759;DHT22;11041;50.854;20.580;2022-08-01T00:55:06;15.40;99.90
21759;DHT22;11041;50.854;20.580;2022-08-01T00:57:34;15.50;99.90
21759;DHT22;11041;50.854;20.580;2022-08-01T01:00:01;15.50;99.90
21759;DHT22;11041;50.854;20.580;2022-08-01T01:02:30;15.50;99.90
21759;DHT22;11041;50.854;20.580;2022-08-01T01:04:56;15.40;99.90
21759;DHT22;11041;50.854;20.580;2022-08-01T01:07:44;15.40;99.90
21759;DHT22;11041;50.854;20.580;2022-08-01T01:11:28;15.50;99.90
21759;DHT22;11041;50.854;20.580;2022-08-01T01:13:51;15.40;99.90
21759;DHT22;11041;50.854;20.580;2022-08-01T01:16:25;15.40;99.90
21759;DHT22;11041;50.854;20.580;2022-08-01T01:19:00;15.40;99.90
21759;DHT22;11041;50.854;20.580;2022-08-01T01:22:00;15.40;99.90
21759;DHT22;11041;50.854;20.580;2022-08-01T01:28:26;15.30;99.90
21759;DHT22;11041;50.854;20.580;2022-08-01T01:31:01;15.30;99.90
21759;DHT22;11041;50.854;20.580;2022-08-01T01:33:34;15.30;99.90
21759;DHT22;11041;50.854;20.580;2022-08-01T01:36:05;15.20;99.90
21759;DHT22;11041;50.854;20.580;2022-08-01T01:38:44;14.00;99.90
21759;DHT22;11041;50.854;20.580;2022-08-01T01:41:16;15.30;99.90
21759;DHT22;11041;50.854;20.580;2022-08-01T01:43:46;15.30;99.90
21759;DHT22;11041;50.854;20.580;2022-08-01T01:46:17;15.20;99.90
21759;DHT22;11041;50.854;20.580;2022-08-01T01:48:49;14.50;99.90
21759;DHT22;11041;50.854;20.580;2022-08-01T01:51:18;15.30;99.90
21759;DHT22;11041;50.854;20.580;2022-08-01T01:53:48;15.30;99.90
21759;DHT22;11041;50.854;20.580;2022-08-01T01:56:19;15.40;99.90
21759;DHT22;11041;50.854;20.580;2022-08-01T01:58:50;15.30;99.90
21759;DHT22;11041;50.854;20.580;2022-08-01T02:01:24;15.30;99.90
21759;DHT22;11041;50.854;20.580;2022-08-01T02:03:55;15.20;99.90
21759;DHT22;11041;50.854;20.580;2022-08-01T02:06:25;15.30;99.90
21759;DHT22;11041;50.854;20.580;2022-08-01T02:08:54;15.30;99.90
21759;DHT22;11041;50.854;20.580;2022-08-01T02:11:22;15.30;99.90
21759;DHT22;11041;50.854;20.580;2022-08-01T02:13:57;15.30;99.90
21759;DHT22;11041;50.854;20.580;2022-08-01T02:16:34;15.40;99.90
21759;DHT22;11041;50.854;20.580;2022-08-01T02:19:03;15.40;99.90
21759;DHT22;11041;50.854;20.580;2022-08-01T02:22:07;15.30;99.90
21759;DHT22;11041;50.854;20.580;2022-08-01T02:27:25;15.40;99.90
21759;DHT22;11041;50.854;20.580;2022-08-01T02:30:03;15.20;99.90
21759;DHT22;11041;50.854;20.580;2022-08-01T02:32:44;15.30;99.90
21759;DHT22;11041;50.854;20.580;2022-08-01T02:35:30;15.30;99.90
21759;DHT22;11041;50.854;20.580;2022-08-01T02:38:01;15.30;99.90
21759;DHT22;11041;50.854;20.580;2022-08-01T02:40:32;15.30;99.90
21759;DHT22;11041;50.854;20.580;2022-08-01T02:43:02;15.30;99.90
21759;DHT22;11041;50.854;20.580;2022-08-01T02:45:31;15.40;99.90
21759;DHT22;11041;50.854;20.580;2022-08-01T02:48:13;15.30;99.90
21759;DHT22;11041;50.854;20.580;2022-08-01T02:50:46;15.30;99.90
21759;DHT22;11041;50.854;20.580;2022-08-01T02:53:18;15.30;99.90
21759;DHT22;11041;50.854;20.580;2022-08-01T02:55:47;15.40;99.90
21759;DHT22;11041;50.854;20.580;2022-08-01T02:58:16;15.30;99.90
21759;DHT22;11041;50.854;20.580;2022-08-01T03:00:46;15.30;99.90
21759;DHT22;11041;50.854;20.580;2022-08-01T03:03:15;15.30;99.90
21759;DHT22;11041;50.854;20.580;2022-08-01T03:05:44;15.20;99.90
21759;DHT22;11041;50.854;20.580;2022-08-01T03:08:12;15.20;99.90
21759;DHT22;11041;50.854;20.580;2022-08-01T03:10:43;15.30;99.90
21759;DHT22;11041;50.854;20.580;2022-08-01T03:13:13;15.40;99.90
21759;DHT22;11041;50.854;20.580;2022-08-01T03:15:43;15.30;99.90
21759;DHT22;11041;50.854;20.580;2022-08-01T03:18:12;15.30;99.90
21759;DHT22;11041;50.854;20.580;2022-08-01T03:20:42;15.30;99.90
21759;DHT22;11041;50.854;20.580;2022-08-01T03:23:12;15.40;99.90
21759;DHT22;11041;50.854;20.580;2022-08-01T03:25:41;15.30;99.90
21759;DHT22;11041;50.854;20.580;2022-08-01T03:28:13;15.30;99.90
21759;DHT22;11041;50.854;20.580;2022-08-01T03:30:42;15.20;99.90
21759;DHT22;11041;50.854;20.580;2022-08-01T03:33:10;15.30;99.90
21759;DHT22;11041;50.854;20.580;2022-08-01T03:35:42;15.30;99.90
21759;DHT22;11041;50.854;20.580;2022-08-01T03:38:18;15.30;99.90
21759;DHT22;11041;50.854;20.580;2022-08-01T03:41:09;15.30;99.90
21759;DHT22;11041;50.854;20.580;2022-08-01T03:43:51;15.30;99.90
21759;DHT22;11041;50.854;20.580;2022-08-01T03:46:35;15.30;99.90
21759;DHT22;11041;50.854;20.580;2022-08-01T03:49:14;15.30;99.90
21759;DHT22;11041;50.854;20.580;2022-08-01T03:51:47;15.40;99.90
21759;DHT22;11041;50.854;20.580;2022-08-01T03:54:22;15.40;99.90
21759;DHT22;11041;50.854;20.580;2022-08-01T03:56:51;15.40;99.90
21759;DHT22;11041;50.854;20.580;2022-08-01T03:59:20;15.50;99.90
21759;DHT22;11041;50.854;20.580;2022-08-01T04:01:47;15.40;99.90
21759;DHT22;11041;50.854;20.580;2022-08-01T04:04:15;15.50;99.90
21759;DHT22;11041;50.854;20.580;2022-08-01T04:06:42;15.50;99.90
21759;DHT22;11041;50.854;20.580;2022-08-01T04:09:11;15.50;99.90
21759;DHT22;11041;50.854;20.580;2022-08-01T04:11:39;15.50;99.90
21759;DHT22;11041;50.854;20.580;2022-08-01T04:14:08;15.50;99.90
21759;DHT22;11041;50.854;20.580;2022-08-01T04:16:34;15.50;99.90
21759;DHT22;11041;50.854;20.580;2022-08-01T04:19:01;15.50;99.90
21759;DHT22;11041;50.854;20.580;2022-08-01T04:21:29;15.50;99.90
21759;DHT22;11041;50.854;20.580;2022-08-01T04:24:02;15.50;99.90
21759;DHT22;11041;50.854;20.580;2022-08-01T04:26:37;15.50;99.90
21759;DHT22;11041;50.854;20.580;2022-08-01T04:29:07;15.40;99.90
21759;DHT22;11041;50.854;20.580;2022-08-01T04:31:36;15.40;99.90
21759;DHT22;11041;50.854;20.580;2022-08-01T04:34:06;15.50;99.90
21759;DHT22;11041;50.854;20.580;2022-08-01T04:36:37;15.50;99.90
21759;DHT22;11041;50.854;20.580;2022-08-01T04:39:09;15.50;99.90
21759;DHT22;11041;50.854;20.580;2022-08-01T04:41:37;15.60;99.90
21759;DHT22;11041;50.854;20.580;2022-08-01T04:44:05;15.60;99.90
21759;DHT22;11041;50.854;20.580;2022-08-01T04:46:34;15.50;99.90
21759;DHT22;11041;50.854;20.580;2022-08-01T04:49:07;15.50;99.90
21759;DHT22;11041;50.854;20.580;2022-08-01T04:51:35;15.50;99.90
21759;DHT22;11041;50.854;20.580;2022-08-01T04:54:01;15.50;99.90
21759;DHT22;11041;50.854;20.580;2022-08-01T04:56:28;15.50;99.90
21759;DHT22;11041;50.854;20.580;2022-08-01T04:58:56;15.60;99.90
21759;DHT22;11041;50.854;20.580;2022-08-01T05:01:41;15.50;99.90
21759;DHT22;11041;50.854;20.580;2022-08-01T05:04:07;15.50;99.90
21759;DHT22;11041;50.854;20.580;2022-08-01T05:06:34;15.60;99.90
21759;DHT22;11041;50.854;20.580;2022-08-01T05:09:00;15.60;99.90
21759;DHT22;11041;50.854;20.580;2022-08-01T05:11:27;15.50;99.90
21759;DHT22;11041;50.854;20.580;2022-08-01T05:13:53;15.50;99.90
21759;DHT22;11041;50.854;20.580;2022-08-01T05:16:20;15.60;99.90
21759;DHT22;11041;50.854;20.580;2022-08-01T05:18:46;15.70;99.90
21759;DHT22;11041;50.854;20.580;2022-08-01T05:21:13;15.70;99.90
21759;DHT22;11041;50.854;20.580;2022-08-01T05:23:39;15.60;99.90
21759;DHT22;11041;50.854;20.580;2022-08-01T05:26:06;15.60;99.90
21759;DHT22;11041;50.854;20.580;2022-08-01T05:28:33;15.60;99.90
21759;DHT22;11041;50.854;20.580;2022-08-01T05:31:00;15.70;99.90
21759;DHT22;11041;50.854;20.580;2022-08-01T05:33:26;15.70;99.90
21759;DHT22;11041;50.854;20.580;2022-08-01T05:35:53;15.60;99.90
21759;DHT22;11041;50.854;20.580;2022-08-01T05:38:19;15.70;99.90
21759;DHT22;11041;50.854;20.580;2022-08-01T05:40:46;15.70;99.90
21759;DHT22;11041;50.854;20.580;2022-08-01T05:43:13;15.80;99.90
21759;DHT22;11041;50.854;20.580;2022-08-01T05:45:39;15.80;99.90
21759;DHT22;11041;50.854;20.580;2022-08-01T05:48:07;15.90;99.90
21759;DHT22;11041;50.854;20.580;2022-08-01T05:50:34;15.90;99.90
21759;DHT22;11041;50.854;20.580;2022-08-01T05:53:00;16.00;99.90
21759;DHT22;11041;50.854;20.580;2022-08-01T05:55:27;16.20;99.90
21759;DHT22;11041;50.854;20.580;2022-08-01T05:57:53;16.20;99.90
21759;DHT22;11041;50.854;20.580;2022-08-01T06:00:20;16.30;99.90
21759;DHT22;11041;50.854;20.580;2022-08-01T06:02:48;16.40;99.90
21759;DHT22;11041;50.854;20.580;2022-08-01T06:05:15;16.40;99.90
21759;DHT22;11041;50.854;20.580;2022-08-01T06:07:42;16.40;99.90
21759;DHT22;11041;50.854;20.580;2022-08-01T06:10:09;16.40;99.90
21759;DHT22;11041;50.854;20.580;2022-08-01T06:12:36;16.40;99.90
21759;DHT22;11041;50.854;20.580;2022-08-01T06:15:04;16.40;99.90
21759;DHT22;11041;50.854;20.580;2022-08-01T06:17:33;16.40;99.90
21759;DHT22;11041;50.854;20.580;2022-08-01T06:19:59;16.40;99.90
21759;DHT22;11041;50.854;20.580;2022-08-01T06:22:26;16.20;99.90
21759;DHT22;11041;50.854;20.580;2022-08-01T06:24:52;16.20;99.90
21759;DHT22;11041;50.854;20.580;2022-08-01T06:27:19;16.40;99.90
21759;DHT22;11041;50.854;20.580;2022-08-01T06:29:46;16.50;99.90
21759;DHT22;11041;50.854;20.580;2022-08-01T06:32:13;16.40;99.90
21759;DHT22;11041;50.854;20.580;2022-08-01T06:34:40;16.50;99.90
21759;DHT22;11041;50.854;20.580;2022-08-01T06:37:07;16.60;99.90
21759;DHT22;11041;50.854;20.580;2022-08-01T06:39:33;16.60;99.90
21759;DHT22;11041;50.854;20.580;2022-08-01T06:42:00;16.70;99.90
21759;DHT22;11041;50.854;20.580;2022-08-01T06:44:26;16.70;99.90
21759;DHT22;11041;50.854;20.580;2022-08-01T06:46:53;16.70;99.90
21759;DHT22;11041;50.854;20.580;2022-08-01T06:49:20;16.70;99.90
21759;DHT22;11041;50.854;20.580;2022-08-01T06:51:46;16.80;99.90
21759;DHT22;11041;50.854;20.580;2022-08-01T06:54:13;16.80;99.90
21759;DHT22;11041;50.854;20.580;2022-08-01T06:56:40;16.70;99.90
21759;DHT22;11041;50.854;20.580;2022-08-01T06:59:06;16.70;99.90
21759;DHT22;11041;50.854;20.580;2022-08-01T07:01:33;16.80;99.90
21759;DHT22;11041;50.854;20.580;2022-08-01T07:04:00;16.80;99.90
21759;DHT22;11041;50.854;20.580;2022-08-01T07:06:28;16.80;99.90
21759;DHT22;11041;50.854;20.580;2022-08-01T07:08:55;16.80;99.90
21759;DHT22;11041;50.854;20.580;2022-08-01T07:11:23;16.70;99.90
21759;DHT22;11041;50.854;20.580;2022-08-01T07:13:49;16.80;99.90
21759;DHT22;11041;50.854;20.580;2022-08-01T07:16:17;16.80;99.90
21759;DHT22;11041;50.854;20.580;2022-08-01T07:18:43;16.70;99.90
21759;DHT22;11041;50.854;20.580;2022-08-01T07:21:10;16.80;99.90
21759;DHT22;11041;50.854;20.580;2022-08-01T07:23:37;17.00;99.90
21759;DHT22;11041;50.854;20.580;2022-08-01T07:26:05;17.10;99.90
21759;DHT22;11041;50.854;20.580;2022-08-01T07:28:32;17.10;99.90
21759;DHT22;11041;50.854;20.580;2022-08-01T07:30:59;17.10;99.90
21759;DHT22;11041;50.854;20.580;2022-08-01T07:33:25;17.20;99.90
21759;DHT22;11041;50.854;20.580;2022-08-01T07:35:51;17.30;99.90
21759;DHT22;11041;50.854;20.580;2022-08-01T07:38:18;17.40;99.90
21759;DHT22;11041;50.854;20.580;2022-08-01T07:40:44;17.50;99.90
21759;DHT22;11041;50.854;20.580;2022-08-01T07:43:11;17.30;99.90
21759;DHT22;11041;50.854;20.580;2022-08-01T07:45:38;17.20;99.90
21759;DHT22;11041;50.854;20.580;2022-08-01T07:48:07;17.50;99.90
21759;DHT22;11041;50.854;20.580;2022-08-01T07:50:34;17.50;99.90
21759;DHT22;11041;50.854;20.580;2022-08-01T07:53:01;17.70;99.90
21759;DHT22;11041;50.854;20.580;2022-08-01T07:55:28;17.80;99.90
21759;DHT22;11041;50.854;20.580;2022-08-01T07:57:55;18.00;99.90
21759;DHT22;11041;50.854;20.580;2022-08-01T08:00:21;17.90;99.90
21759;DHT22;11041;50.854;20.580;2022-08-01T08:02:48;18.00;99.90
21759;DHT22;11041;50.854;20.580;2022-08-01T08:05:15;18.00;99.90
21759;DHT22;11041;50.854;20.580;2022-08-01T08:07:41;18.00;99.90
21759;DHT22;11041;50.854;20.580;2022-08-01T08:10:12;18.10;99.90
21759;DHT22;11041;50.854;20.580;2022-08-01T08:12:51;18.20;99.90
21759;DHT22;11041;50.854;20.580;2022-08-01T08:15:17;18.30;99.90
21759;DHT22;11041;50.854;20.580;2022-08-01T08:17:44;18.40;99.90
21759;DHT22;11041;50.854;20.580;2022-08-01T08:20:11;18.40;99.90
21759;DHT22;11041;50.854;20.580;2022-08-01T08:22:38;18.50;99.90
21759;DHT22;11041;50.854;20.580;2022-08-01T08:25:06;18.50;99.90
21759;DHT22;11041;50.854;20.580;2022-08-01T08:27:35;18.70;99.90
21759;DHT22;11041;50.854;20.580;2022-08-01T08:30:03;18.80;99.90
21759;DHT22;11041;50.854;20.580;2022-08-01T08:32:34;18.80;99.90
21759;DHT22;11041;50.854;20.580;2022-08-01T08:35:02;18.90;99.90
21759;DHT22;11041;50.854;20.580;2022-08-01T08:37:29;18.90;99.90
21759;DHT22;11041;50.854;20.580;2022-08-01T08:39:56;19.00;99.90
21759;DHT22;11041;50.854;20.580;2022-08-01T08:42:22;19.10;99.90
21759;DHT22;11041;50.854;20.580;2022-08-01T08:44:49;19.20;99.90
21759;DHT22;11041;50.854;20.580;2022-08-01T08:47:15;19.20;99.90
21759;DHT22;11041;50.854;20.580;2022-08-01T08:49:44;19.20;99.90
21759;DHT22;11041;50.854;20.580;2022-08-01T08:52:12;19.30;99.90
21759;DHT22;11041;50.854;20.580;2022-08-01T08:54:41;19.40;99.90
21759;DHT22;11041;50.854;20.580;2022-08-01T08:57:10;19.40;99.90
21759;DHT22;11041;50.854;20.580;2022-08-01T08:59:40;19.50;99.90
21759;DHT22;11041;50.854;20.580;2022-08-01T09:02:10;19.60;99.90
21759;DHT22;11041;50.854;20.580;2022-08-01T09:04:38;19.60;99.90
21759;DHT22;11041;50.854;20.580;2022-08-01T09:07:07;19.70;99.90
21759;DHT22;11041;50.854;20.580;2022-08-01T09:09:34;19.70;99.90
21759;DHT22;11041;50.854;20.580;2022-08-01T09:12:01;19.70;99.90
21759;DHT22;11041;50.854;20.580;2022-08-01T09:14:28;19.80;99.90
21759;DHT22;11041;50.854;20.580;2022-08-01T09:17:03;19.80;99.90
21759;DHT22;11041;50.854;20.580;2022-08-01T09:19:41;20.00;99.90
21759;DHT22;11041;50.854;20.580;2022-08-01T09:22:12;20.00;99.90
21759;DHT22;11041;50.854;20.580;2022-08-01T09:25:02;20.20;99.90
21759;DHT22;11041;50.854;20.580;2022-08-01T09:27:38;20.20;99.90
21759;DHT22;11041;50.854;20.580;2022-08-01T09:30:14;20.30;99.90
21759;DHT22;11041;50.854;20.580;2022-08-01T09:32:57;20.30;99.90
21759;DHT22;11041;50.854;20.580;2022-08-01T09:35:34;20.30;99.90
21759;DHT22;11041;50.854;20.580;2022-08-01T09:38:20;20.50;99.90
21759;DHT22;11041;50.854;20.580;2022-08-01T09:40:56;20.50;99.90
21759;DHT22;11041;50.854;20.580;2022-08-01T09:43:30;20.60;99.90
21759;DHT22;11041;50.854;20.580;2022-08-01T09:45:58;20.70;99.90
21759;DHT22;11041;50.854;20.580;2022-08-01T09:48:26;20.80;99.90
21759;DHT22;11041;50.854;20.580;2022-08-01T09:50:53;20.90;99.90
21759;DHT22;11041;50.854;20.580;2022-08-01T09:53:20;21.00;99.90
21759;DHT22;11041;50.854;20.580;2022-08-01T09:55:47;21.10;99.90
21759;DHT22;11041;50.854;20.580;2022-08-01T09:58:17;21.10;99.90
21759;DHT22;11041;50.854;20.580;2022-08-01T10:00:58;21.10;99.90
21759;DHT22;11041;50.854;20.580;2022-08-01T10:03:30;21.20;99.90
21759;DHT22;11041;50.854;20.580;2022-08-01T10:05:59;21.20;99.90
21759;DHT22;11041;50.854;20.580;2022-08-01T10:08:25;21.10;99.90
21759;DHT22;11041;50.854;20.580;2022-08-01T10:11:11;21.10;99.90
21759;DHT22;11041;50.854;20.580;2022-08-01T10:13:39;21.10;99.90
21759;DHT22;11041;50.854;20.580;2022-08-01T10:16:06;21.10;99.90
21759;DHT22;11041;50.854;20.580;2022-08-01T10:18:34;21.10;99.90
21759;DHT22;11041;50.854;20.580;2022-08-01T10:21:03;21.30;99.90
21759;DHT22;11041;50.854;20.580;2022-08-01T10:23:33;21.30;99.90
21759;DHT22;11041;50.854;20.580;2022-08-01T10:26:01;21.40;99.90
21759;DHT22;11041;50.854;20.580;2022-08-01T10:28:31;21.40;99.90
21759;DHT22;11041;50.854;20.580;2022-08-01T10:31:00;21.50;99.90
21759;DHT22;11041;50.854;20.580;2022-08-01T10:33:29;21.50;99.90
21759;DHT22;11041;50.854;20.580;2022-08-01T10:35:57;21.50;99.90
21759;DHT22;11041;50.854;20.580;2022-08-01T10:38:25;21.70;99.90
21759;DHT22;11041;50.854;20.580;2022-08-01T10:40:54;21.70;99.90
21759;DHT22;11041;50.854;20.580;2022-08-01T10:43:23;21.80;99.90
21759;DHT22;11041;50.854;20.580;2022-08-01T10:45:49;21.80;99.90
21759;DHT22;11041;50.854;20.580;2022-08-01T10:51:08;22.20;99.90
21759;DHT22;11041;50.854;20.580;2022-08-01T10:53:35;22.30;99.90
21759;DHT22;11041;50.854;20.580;2022-08-01T10:56:03;22.30;99.90
21759;DHT22;11041;50.854;20.580;2022-08-01T10:58:33;22.30;99.90
21759;DHT22;11041;50.854;20.580;2022-08-01T11:01:14;22.70;99.90
21759;DHT22;11041;50.854;20.580;2022-08-01T11:04:04;22.40;99.90
21759;DHT22;11041;50.854;20.580;2022-08-01T11:09:17;22.60;99.90
21759;DHT22;11041;50.854;20.580;2022-08-01T11:12:09;22.70;99.90
21759;DHT22;11041;50.854;20.580;2022-08-01T11:17:47;22.80;99.90
21759;DHT22;11041;50.854;20.580;2022-08-01T11:20:16;23.00;99.90
21759;DHT22;11041;50.854;20.580;2022-08-01T11:28:25;23.60;99.90
21759;DHT22;11041;50.854;20.580;2022-08-01T11:30:56;23.80;99.90
21759;DHT22;11041;50.854;20.580;2022-08-01T11:38:49;24.30;99.90
21759;DHT22;11041;50.854;20.580;2022-08-01T11:41:39;24.30;99.90
21759;DHT22;11041;50.854;20.580;2022-08-01T11:44:11;24.20;99.90
21759;DHT22;11041;50.854;20.580;2022-08-01T11:47:03;24.20;99.90
21759;DHT22;11041;50.854;20.580;2022-08-01T11:54:38;24.50;99.90
21759;DHT22;11041;50.854;20.580;2022-08-01T11:57:29;24.60;99.90
21759;DHT22;11041;50.854;20.580;2022-08-01T12:00:04;24.50;99.90
21759;DHT22;11041;50.854;20.580;2022-08-01T12:02:40;24.70;99.90
21759;DHT22;11041;50.854;20.580;2022-08-01T12:05:09;24.90;99.90
21759;DHT22;11041;50.854;20.580;2022-08-01T12:07:39;25.00;99.90
21759;DHT22;11041;50.854;20.580;2022-08-01T12:10:11;25.10;99.90
21759;DHT22;11041;50.854;20.580;2022-08-01T12:12:53;25.00;99.90
21759;DHT22;11041;50.854;20.580;2022-08-01T12:15:28;24.90;99.90
21759;DHT22;11041;50.854;20.580;2022-08-01T12:17:58;25.00;99.90
21759;DHT22;11041;50.854;20.580;2022-08-01T12:20:30;25.00;99.90
21759;DHT22;11041;50.854;20.580;2022-08-01T12:23:06;25.10;99.90
21759;DHT22;11041;50.854;20.580;2022-08-01T12:25:36;25.30;99.90
21759;DHT22;11041;50.854;20.580;2022-08-01T12:28:08;25.40;99.90
21759;DHT22;11041;50.854;20.580;2022-08-01T12:30:36;25.40;99.90
21759;DHT22;11041;50.854;20.580;2022-08-01T12:33:05;25.30;99.90
21759;DHT22;11041;50.854;20.580;2022-08-01T12:35:34;25.30;99.90
21759;DHT22;11041;50.854;20.580;2022-08-01T12:38:17;25.20;99.90
21759;DHT22;11041;50.854;20.580;2022-08-01T12:40:49;25.30;99.90
21759;DHT22;11041;50.854;20.580;2022-08-01T12:43:18;25.30;99.90
21759;DHT22;11041;50.854;20.580;2022-08-01T12:45:48;25.30;99.90
21759;DHT22;11041;50.854;20.580;2022-08-01T12:48:17;24.90;99.90
21759;DHT22;11041;50.854;20.580;2022-08-01T12:50:47;25.20;99.90
21759;DHT22;11041;50.854;20.580;2022-08-01T12:53:15;25.40;99.90
21759;DHT22;11041;50.854;20.580;2022-08-01T12:55:47;25.60;99.90
21759;DHT22;11041;50.854;20.580;2022-08-01T12:58:17;26.00;99.30
21759;DHT22;11041;50.854;20.580;2022-08-01T13:00:47;26.10;99.90
21759;DHT22;11041;50.854;20.580;2022-08-01T13:03:18;25.80;98.20
21759;DHT22;11041;50.854;20.580;2022-08-01T13:05:51;25.60;97.30
21759;DHT22;11041;50.854;20.580;2022-08-01T13:08:23;25.60;99.90
21759;DHT22;11041;50.854;20.580;2022-08-01T13:10:55;25.60;99.90
21759;DHT22;11041;50.854;20.580;2022-08-01T13:13:52;25.30;97.00
21759;DHT22;11041;50.854;20.580;2022-08-01T13:16:22;25.20;98.40
21759;DHT22;11041;50.854;20.580;2022-08-01T13:18:52;25.20;99.70
21759;DHT22;11041;50.854;20.580;2022-08-01T13:24:07;25.00;99.90
21759;DHT22;11041;50.854;20.580;2022-08-01T13:26:45;25.00;99.90
21759;DHT22;11041;50.854;20.580;2022-08-01T13:29:18;24.70;99.90
21759;DHT22;11041;50.854;20.580;2022-08-01T13:31:55;24.70;99.90
21759;DHT22;11041;50.854;20.580;2022-08-01T13:34:34;24.50;99.90
21759;DHT22;11041;50.854;20.580;2022-08-01T13:37:01;24.50;99.90
21759;DHT22;11041;50.854;20.580;2022-08-01T13:39:29;24.70;99.90
21759;DHT22;11041;50.854;20.580;2022-08-01T13:42:15;24.70;99.90
21759;DHT22;11041;50.854;20.580;2022-08-01T13:44:43;24.70;99.90
21759;DHT22;11041;50.854;20.580;2022-08-01T13:47:12;24.80;99.90
21759;DHT22;11041;50.854;20.580;2022-08-01T13:49:39;24.80;99.90
21759;DHT22;11041;50.854;20.580;2022-08-01T13:52:06;24.90;99.90
21759;DHT22;11041;50.854;20.580;2022-08-01T13:54:33;25.10;99.90
21759;DHT22;11041;50.854;20.580;2022-08-01T13:57:00;25.40;99.90
21759;DHT22;11041;50.854;20.580;2022-08-01T13:59:27;25.90;99.90
21759;DHT22;11041;50.854;20.580;2022-08-01T14:01:53;26.20;99.70
21759;DHT22;11041;50.854;20.580;2022-08-01T14:04:20;26.60;99.90
21759;DHT22;11041;50.854;20.580;2022-08-01T14:06:47;26.60;99.90
21759;DHT22;11041;50.854;20.580;2022-08-01T14:09:14;26.90;95.30
21759;DHT22;11041;50.854;20.580;2022-08-01T14:11:43;27.00;95.90
21759;DHT22;11041;50.854;20.580;2022-08-01T14:14:09;27.40;96.40
21759;DHT22;11041;50.854;20.580;2022-08-01T14:16:36;27.60;93.40
21759;DHT22;11041;50.854;20.580;2022-08-01T14:19:03;27.10;91.10
21759;DHT22;11041;50.854;20.580;2022-08-01T14:21:30;27.20;91.40
21759;DHT22;11041;50.854;20.580;2022-08-01T14:23:57;27.10;90.10
21759;DHT22;11041;50.854;20.580;2022-08-01T14:26:24;26.90;90.40
21759;DHT22;11041;50.854;20.580;2022-08-01T14:28:50;26.40;91.50
21759;DHT22;11041;50.854;20.580;2022-08-01T14:31:16;26.10;93.70
21759;DHT22;11041;50.854;20.580;2022-08-01T14:33:43;25.70;92.90
21759;DHT22;11041;50.854;20.580;2022-08-01T14:36:09;25.70;94.90
21759;DHT22;11041;50.854;20.580;2022-08-01T14:38:36;25.70;96.00
21759;DHT22;11041;50.854;20.580;2022-08-01T14:41:02;25.70;95.00
21759;DHT22;11041;50.854;20.580;2022-08-01T14:43:29;25.60;99.50
21759;DHT22;11041;50.854;20.580;2022-08-01T14:45:57;25.70;98.30
21759;DHT22;11041;50.854;20.580;2022-08-01T14:48:24;25.60;98.70
21759;DHT22;11041;50.854;20.580;2022-08-01T14:50:51;25.60;97.70
21759;DHT22;11041;50.854;20.580;2022-08-01T14:53:17;25.70;98.80
21759;DHT22;11041;50.854;20.580;2022-08-01T14:55:44;25.90;98.70
21759;DHT22;11041;50.854;20.580;2022-08-01T14:58:11;26.40;96.00
21759;DHT22;11041;50.854;20.580;2022-08-01T15:00:37;27.20;95.70
21759;DHT22;11041;50.854;20.580;2022-08-01T15:03:04;27.30;93.40
21759;DHT22;11041;50.854;20.580;2022-08-01T15:05:30;27.60;94.30
21759;DHT22;11041;50.854;20.580;2022-08-01T15:07:58;27.30;91.10
21759;DHT22;11041;50.854;20.580;2022-08-01T15:10:25;27.30;93.70
21759;DHT22;11041;50.854;20.580;2022-08-01T15:12:52;27.00;94.10
21759;DHT22;11041;50.854;20.580;2022-08-01T15:15:19;26.60;95.40
21759;DHT22;11041;50.854;20.580;2022-08-01T15:17:46;26.40;93.90
21759;DHT22;11041;50.854;20.580;2022-08-01T15:20:12;25.90;95.80
21759;DHT22;11041;50.854;20.580;2022-08-01T15:22:38;26.00;96.50
21759;DHT22;11041;50.854;20.580;2022-08-01T15:25:05;26.10;99.90
21759;DHT22;11041;50.854;20.580;2022-08-01T15:27:32;26.70;99.90
21759;DHT22;11041;50.854;20.580;2022-08-01T15:29:58;26.70;96.30
21759;DHT22;11041;50.854;20.580;2022-08-01T15:32:25;28.00;98.50
21759;DHT22;11041;50.854;20.580;2022-08-01T15:34:52;29.10;93.40
21759;DHT22;11041;50.854;20.580;2022-08-01T15:37:19;30.20;89.40
21759;DHT22;11041;50.854;20.580;2022-08-01T15:39:45;30.20;85.90
21759;DHT22;11041;50.854;20.580;2022-08-01T15:42:14;29.70;86.40
21759;DHT22;11041;50.854;20.580;2022-08-01T15:44:43;29.70;89.80
21759;DHT22;11041;50.854;20.580;2022-08-01T15:47:10;29.20;83.80
21759;DHT22;11041;50.854;20.580;2022-08-01T15:49:39;29.90;89.80
21759;DHT22;11041;50.854;20.580;2022-08-01T15:52:06;30.10;86.60
21759;DHT22;11041;50.854;20.580;2022-08-01T15:54:34;29.20;82.00
21759;DHT22;11041;50.854;20.580;2022-08-01T15:57:01;28.90;83.00
21759;DHT22;11041;50.854;20.580;2022-08-01T15:59:28;28.30;91.10
21759;DHT22;11041;50.854;20.580;2022-08-01T16:01:55;27.40;99.90
21759;DHT22;11041;50.854;20.580;2022-08-01T16:04:21;26.70;99.90
21759;DHT22;11041;50.854;20.580;2022-08-01T16:06:48;26.30;99.90